sensor_id;sensor_type;location;lat;lon;timestamp;P1;durP1;ratioP1;P2;durP2;ratioP2
63965;SDS011;50151;52.030;5.350;2023-03-12T00:01:15;11.70;;;5.60;;
63965;SDS011;50151;52.030;5.350;2023-03-12T00:03:45;12.00;;;5.78;;
63965;SDS011;50151;52.030;5.350;2023-03-12T00:06:12;11.32;;;5.45;;
63965;SDS011;50151;52.030;5.350;2023-03-12T00:08:39;12.80;;;5.97;;
63965;SDS011;50151;52.030;5.350;2023-03-12T00:11:10;8.95;;;5.43;;
63965;SDS011;50151;52.030;5.350;2023-03-12T10:41:29;15.93;;;9.85;;
63965;SDS011;50151;52.030;5.350;2023-03-12T10:44:01;14.15;;;9.98;;
63965;SDS011;50151;52.030;5.350;2023-03-12T10:46:37;16.63;;;9.75;;
63965;SDS011;50151;52.030;5.350;2023-03-12T10:51:57;15.23;;;7.45;;
63965;SDS011;50151;52.030;5.350;2023-03-12T10:56:55;18.67;;;8.18;;
63965;SDS011;50151;52.030;5.350;2023-03-12T10:59:24;20.15;;;8.55;;
63965;SDS011;50151;52.030;5.350;2023-03-12T11:01:55;23.55;;;6.80;;
63965;SDS011;50151;52.030;5.350;2023-03-12T11:10:36;14.35;;;6.40;;
63965;SDS011;50151;52.030;5.350;2023-03-12T11:12:57;22.55;;;7.22;;
63965;SDS011;50151;52.030;5.350;2023-03-12T11:15:37;23.48;;;7.20;;
63965;SDS011;50151;52.030;5.350;2023-03-12T11:18:16;22.27;;;6.43;;
63965;SDS011;50151;52.030;5.350;2023-03-12T11:20:44;16.33;;;6.13;;
63965;SDS011;50151;52.030;5.350;2023-03-12T11:23:12;24.80;;;6.47;;
63965;SDS011;50151;52.030;5.350;2023-03-12T11:25:41;19.98;;;5.95;;
63965;SDS011;50151;52.030;5.350;2023-03-12T11:28:12;24.25;;;6.00;;
63965;SDS011;50151;52.030;5.350;2023-03-12T11:30:46;17.45;;;4.28;;
63965;SDS011;50151;52.030;5.350;2023-03-12T11:33:15;13.65;;;3.83;;
63965;SDS011;50151;52.030;5.350;2023-03-12T11:35:53;24.13;;;5.43;;
63965;SDS011;50151;52.030;5.350;2023-03-12T11:38:37;17.60;;;4.80;;
63965;SDS011;50151;52.030;5.350;2023-03-12T11:43:49;9.43;;;2.92;;
63965;SDS011;50151;52.030;5.350;2023-03-12T11:46:43;10.40;;;4.25;;
63965;SDS011;50151;52.030;5.350;2023-03-12T11:52:37;27.17;;;5.75;;
63965;SDS011;50151;52.030;5.350;2023-03-12T11:55:18;28.60;;;5.82;;
63965;SDS011;50151;52.030;5.350;2023-03-12T11:58:01;21.65;;;5.20;;
63965;SDS011;50151;52.030;5.350;2023-03-12T12:00:59;30.08;;;5.30;;
63965;SDS011;50151;52.030;5.350;2023-03-12T12:09:35;13.07;;;3.38;;
63965;SDS011;50151;52.030;5.350;2023-03-12T12:12:27;20.25;;;4.47;;
63965;SDS011;50151;52.030;5.350;2023-03-12T12:15:21;28.48;;;5.95;;
63965;SDS011;50151;52.030;5.350;2023-03-12T12:17:53;19.98;;;4.68;;
63965;SDS011;50151;52.030;5.350;2023-03-12T12:31:24;17.52;;;3.85;;
63965;SDS011;50151;52.030;5.350;2023-03-12T12:34:16;21.08;;;3.60;;
63965;SDS011;50151;52.030;5.350;2023-03-12T12:39:40;25.08;;;4.35;;
63965;SDS011;50151;52.030;5.350;2023-03-12T12:42:15;24.03;;;4.17;;
63965;SDS011;50151;52.030;5.350;2023-03-12T12:44:48;22.23;;;4.28;;
63965;SDS011;50151;52.030;5.350;2023-03-12T12:47:19;28.05;;;4.22;;
63965;SDS011;50151;52.030;5.350;2023-03-12T12:49:55;23.77;;;4.20;;
63965;SDS011;50151;52.030;5.350;2023-03-12T12:52:23;20.90;;;3.92;;
63965;SDS011;50151;52.030;5.350;2023-03-12T13:03:04;27.20;;;4.72;;
63965;SDS011;50151;52.030;5.350;2023-03-12T13:08:02;27.75;;;4.35;;
63965;SDS011;50151;52.030;5.350;2023-03-12T13:23:31;30.55;;;4.47;;
63965;SDS011;50151;52.030;5.350;2023-03-12T13:36:36;24.67;;;4.50;;
63965;SDS011;50151;52.030;5.350;2023-03-12T13:41:37;31.85;;;4.68;;
63965;SDS011;50151;52.030;5.350;2023-03-12T13:49:39;24.30;;;4.75;;
63965;SDS011;50151;52.030;5.350;2023-03-12T13:54:39;22.73;;;3.50;;
63965;SDS011;50151;52.030;5.350;2023-03-12T13:59:50;22.30;;;3.72;;
63965;SDS011;50151;52.030;5.350;2023-03-12T14:02:22;34.97;;;5.53;;
63965;SDS011;50151;52.030;5.350;2023-03-12T14:04:53;22.90;;;4.43;;
63965;SDS011;50151;52.030;5.350;2023-03-12T14:10:17;25.88;;;4.20;;
63965;SDS011;50151;52.030;5.350;2023-03-12T14:13:11;27.88;;;4.68;;
63965;SDS011;50151;52.030;5.350;2023-03-12T14:19:01;14.73;;;2.55;;
63965;SDS011;50151;52.030;5.350;2023-03-12T14:21:31;10.50;;;2.45;;
63965;SDS011;50151;52.030;5.350;2023-03-12T14:24:01;19.27;;;3.92;;
63965;SDS011;50151;52.030;5.350;2023-03-12T14:26:34;26.27;;;3.95;;
63965;SDS011;50151;52.030;5.350;2023-03-12T14:31:43;21.75;;;3.25;;
63965;SDS011;50151;52.030;5.350;2023-03-12T14:34:15;20.73;;;3.22;;
63965;SDS011;50151;52.030;5.350;2023-03-12T14:36:57;21.50;;;4.03;;
63965;SDS011;50151;52.030;5.350;2023-03-12T14:42:11;19.65;;;3.75;;
63965;SDS011;50151;52.030;5.350;2023-03-12T14:45:01;11.95;;;2.42;;
63965;SDS011;50151;52.030;5.350;2023-03-12T14:47:43;23.02;;;3.95;;
63965;SDS011;50151;52.030;5.350;2023-03-12T14:50:21;16.17;;;3.65;;
63965;SDS011;50151;52.030;5.350;2023-03-12T14:52:48;27.00;;;4.25;;
63965;SDS011;50151;52.030;5.350;2023-03-12T14:55:18;16.80;;;3.55;;
63965;SDS011;50151;52.030;5.350;2023-03-12T14:57:47;27.02;;;4.22;;
63965;SDS011;50151;52.030;5.350;2023-03-12T15:00:26;32.92;;;4.80;;
63965;SDS011;50151;52.030;5.350;2023-03-12T15:02:53;15.45;;;3.10;;
63965;SDS011;50151;52.030;5.350;2023-03-12T15:05:23;23.60;;;3.45;;
63965;SDS011;50151;52.030;5.350;2023-03-12T15:07:50;14.18;;;3.05;;
63965;SDS011;50151;52.030;5.350;2023-03-12T15:10:22;24.75;;;3.92;;
63965;SDS011;50151;52.030;5.350;2023-03-12T15:12:51;15.18;;;3.05;;
63965;SDS011;50151;52.030;5.350;2023-03-12T15:18:12;20.05;;;3.50;;
63965;SDS011;50151;52.030;5.350;2023-03-12T15:20:43;21.98;;;3.38;;
63965;SDS011;50151;52.030;5.350;2023-03-12T15:23:11;20.95;;;3.25;;
63965;SDS011;50151;52.030;5.350;2023-03-12T15:25:39;20.98;;;3.63;;
63965;SDS011;50151;52.030;5.350;2023-03-12T15:30:36;15.75;;;3.05;;
63965;SDS011;50151;52.030;5.350;2023-03-12T15:33:12;16.85;;;5.05;;
63965;SDS011;50151;52.030;5.350;2023-03-12T15:36:03;23.02;;;3.92;;
63965;SDS011;50151;52.030;5.350;2023-03-12T15:38:43;20.38;;;3.70;;
63965;SDS011;50151;52.030;5.350;2023-03-12T15:41:20;17.52;;;3.47;;
63965;SDS011;50151;52.030;5.350;2023-03-12T15:43:52;19.10;;;3.88;;
63965;SDS011;50151;52.030;5.350;2023-03-12T15:46:21;27.77;;;4.75;;
63965;SDS011;50151;52.030;5.350;2023-03-12T15:48:50;21.00;;;3.28;;
63965;SDS011;50151;52.030;5.350;2023-03-12T15:56:38;27.92;;;3.28;;
63965;SDS011;50151;52.030;5.350;2023-03-12T16:01:44;13.30;;;2.92;;
63965;SDS011;50151;52.030;5.350;2023-03-12T16:04:16;22.38;;;4.18;;
63965;SDS011;50151;52.030;5.350;2023-03-12T16:06:42;18.48;;;3.92;;
63965;SDS011;50151;52.030;5.350;2023-03-12T16:09:15;27.33;;;3.95;;
63965;SDS011;50151;52.030;5.350;2023-03-12T16:11:45;28.33;;;4.22;;
63965;SDS011;50151;52.030;5.350;2023-03-12T16:16:44;28.98;;;4.65;;
63965;SDS011;50151;52.030;5.350;2023-03-12T16:19:16;19.95;;;3.72;;
63965;SDS011;50151;52.030;5.350;2023-03-12T16:21:44;28.58;;;4.70;;
63965;SDS011;50151;52.030;5.350;2023-03-12T16:24:12;23.25;;;4.18;;
63965;SDS011;50151;52.030;5.350;2023-03-12T16:27:15;20.30;;;3.63;;
63965;SDS011;50151;52.030;5.350;2023-03-12T16:29:39;23.63;;;3.60;;
63965;SDS011;50151;52.030;5.350;2023-03-12T16:32:13;30.25;;;4.55;;
63965;SDS011;50151;52.030;5.350;2023-03-12T16:34:41;22.40;;;4.00;;
63965;SDS011;50151;52.030;5.350;2023-03-12T16:37:10;22.58;;;4.00;;
63965;SDS011;50151;52.030;5.350;2023-03-12T16:39:37;26.52;;;4.30;;
63965;SDS011;50151;52.030;5.350;2023-03-12T16:42:08;25.77;;;4.28;;
63965;SDS011;50151;52.030;5.350;2023-03-12T16:44:40;29.88;;;5.22;;
63965;SDS011;50151;52.030;5.350;2023-03-12T16:47:13;22.77;;;4.10;;
63965;SDS011;50151;52.030;5.350;2023-03-12T16:49:40;18.45;;;3.53;;
63965;SDS011;50151;52.030;5.350;2023-03-12T16:52:18;28.50;;;4.45;;
63965;SDS011;50151;52.030;5.350;2023-03-12T16:54:51;27.52;;;4.82;;
63965;SDS011;50151;52.030;5.350;2023-03-12T16:59:50;20.38;;;3.85;;
63965;SDS011;50151;52.030;5.350;2023-03-12T17:02:17;26.58;;;3.78;;
63965;SDS011;50151;52.030;5.350;2023-03-12T17:04:44;22.95;;;4.20;;
63965;SDS011;50151;52.030;5.350;2023-03-12T17:07:10;30.40;;;4.70;;
63965;SDS011;50151;52.030;5.350;2023-03-12T17:09:37;35.13;;;5.07;;
63965;SDS011;50151;52.030;5.350;2023-03-12T17:12:05;24.67;;;4.43;;
63965;SDS011;50151;52.030;5.350;2023-03-12T17:14:32;24.63;;;4.22;;
63965;SDS011;50151;52.030;5.350;2023-03-12T17:16:58;35.63;;;5.53;;
63965;SDS011;50151;52.030;5.350;2023-03-12T17:19:26;29.25;;;4.32;;
63965;SDS011;50151;52.030;5.350;2023-03-12T17:21:52;25.77;;;4.63;;
63965;SDS011;50151;52.030;5.350;2023-03-12T17:24:19;33.08;;;5.30;;
63965;SDS011;50151;52.030;5.350;2023-03-12T17:26:47;35.63;;;6.18;;
63965;SDS011;50151;52.030;5.350;2023-03-12T17:29:16;32.63;;;4.43;;
63965;SDS011;50151;52.030;5.350;2023-03-12T17:31:43;25.20;;;5.05;;
63965;SDS011;50151;52.030;5.350;2023-03-12T17:34:10;19.33;;;3.38;;
63965;SDS011;50151;52.030;5.350;2023-03-12T17:36:36;20.38;;;3.97;;
63965;SDS011;50151;52.030;5.350;2023-03-12T17:39:03;20.10;;;4.28;;
63965;SDS011;50151;52.030;5.350;2023-03-12T17:41:31;28.77;;;5.00;;
63965;SDS011;50151;52.030;5.350;2023-03-12T17:43:58;37.55;;;5.90;;
63965;SDS011;50151;52.030;5.350;2023-03-12T17:46:27;24.30;;;4.15;;
63965;SDS011;50151;52.030;5.350;2023-03-12T17:48:55;33.75;;;5.15;;
63965;SDS011;50151;52.030;5.350;2023-03-12T17:51:22;21.33;;;3.75;;
63965;SDS011;50151;52.030;5.350;2023-03-12T17:53:48;28.98;;;4.10;;
63965;SDS011;50151;52.030;5.350;2023-03-12T17:56:15;21.30;;;3.67;;
63965;SDS011;50151;52.030;5.350;2023-03-12T17:58:43;26.33;;;4.40;;
63965;SDS011;50151;52.030;5.350;2023-03-12T18:01:10;21.38;;;3.38;;
63965;SDS011;50151;52.030;5.350;2023-03-12T18:03:38;18.98;;;3.35;;
63965;SDS011;50151;52.030;5.350;2023-03-12T18:06:05;13.82;;;2.25;;
63965;SDS011;50151;52.030;5.350;2023-03-12T18:08:32;15.35;;;3.65;;
63965;SDS011;50151;52.030;5.350;2023-03-12T18:10:58;13.25;;;3.17;;
63965;SDS011;50151;52.030;5.350;2023-03-12T18:13:26;16.50;;;3.30;;
63965;SDS011;50151;52.030;5.350;2023-03-12T18:15:54;16.63;;;3.35;;
63965;SDS011;50151;52.030;5.350;2023-03-12T18:18:23;15.63;;;2.72;;
63965;SDS011;50151;52.030;5.350;2023-03-12T18:20:51;6.85;;;1.67;;
63965;SDS011;50151;52.030;5.350;2023-03-12T18:23:18;12.95;;;2.60;;
63965;SDS011;50151;52.030;5.350;2023-03-12T18:25:44;13.02;;;2.30;;
63965;SDS011;50151;52.030;5.350;2023-03-12T18:28:11;12.20;;;2.25;;
63965;SDS011;50151;52.030;5.350;2023-03-12T18:30:40;13.40;;;2.70;;
63965;SDS011;50151;52.030;5.350;2023-03-12T18:33:06;19.90;;;2.38;;
63965;SDS011;50151;52.030;5.350;2023-03-12T18:35:33;10.60;;;2.15;;
63965;SDS011;50151;52.030;5.350;2023-03-12T18:38:00;5.90;;;1.73;;
63965;SDS011;50151;52.030;5.350;2023-03-12T18:40:27;13.05;;;2.30;;
63965;SDS011;50151;52.030;5.350;2023-03-12T18:42:57;10.82;;;1.70;;
63965;SDS011;50151;52.030;5.350;2023-03-12T18:45:25;12.38;;;2.15;;
63965;SDS011;50151;52.030;5.350;2023-03-12T18:47:52;10.13;;;2.08;;
63965;SDS011;50151;52.030;5.350;2023-03-12T18:50:19;8.68;;;1.55;;
63965;SDS011;50151;52.030;5.350;2023-03-12T18:52:46;8.27;;;1.95;;
63965;SDS011;50151;52.030;5.350;2023-03-12T18:55:13;11.68;;;1.83;;
63965;SDS011;50151;52.030;5.350;2023-03-12T18:57:41;19.75;;;1.40;;
63965;SDS011;50151;52.030;5.350;2023-03-12T19:00:09;8.63;;;1.88;;
63965;SDS011;50151;52.030;5.350;2023-03-12T19:02:39;7.00;;;1.65;;
63965;SDS011;50151;52.030;5.350;2023-03-12T19:05:07;11.38;;;2.05;;
63965;SDS011;50151;52.030;5.350;2023-03-12T19:07:36;8.05;;;1.75;;
63965;SDS011;50151;52.030;5.350;2023-03-12T19:10:04;10.38;;;1.92;;
63965;SDS011;50151;52.030;5.350;2023-03-12T19:12:32;8.02;;;2.05;;
63965;SDS011;50151;52.030;5.350;2023-03-12T19:15:15;12.48;;;2.40;;
63965;SDS011;50151;52.030;5.350;2023-03-12T19:17:42;13.63;;;2.25;;
63965;SDS011;50151;52.030;5.350;2023-03-12T19:20:09;13.40;;;1.77;;
63965;SDS011;50151;52.030;5.350;2023-03-12T19:22:36;10.82;;;2.03;;
63965;SDS011;50151;52.030;5.350;2023-03-12T19:25:03;14.80;;;2.28;;
63965;SDS011;50151;52.030;5.350;2023-03-12T19:27:30;18.70;;;2.78;;
63965;SDS011;50151;52.030;5.350;2023-03-12T19:29:56;13.73;;;2.85;;
63965;SDS011;50151;52.030;5.350;2023-03-12T19:32:23;11.27;;;2.47;;
63965;SDS011;50151;52.030;5.350;2023-03-12T19:34:58;11.68;;;2.78;;
63965;SDS011;50151;52.030;5.350;2023-03-12T19:37:24;13.55;;;3.03;;
63965;SDS011;50151;52.030;5.350;2023-03-12T19:39:51;14.43;;;2.97;;
63965;SDS011;50151;52.030;5.350;2023-03-12T19:42:18;11.95;;;3.00;;
63965;SDS011;50151;52.030;5.350;2023-03-12T19:44:44;16.92;;;3.50;;
63965;SDS011;50151;52.030;5.350;2023-03-12T19:47:11;16.25;;;3.58;;
63965;SDS011;50151;52.030;5.350;2023-03-12T19:49:38;19.15;;;3.92;;
63965;SDS011;50151;52.030;5.350;2023-03-12T19:52:04;29.98;;;4.45;;
63965;SDS011;50151;52.030;5.350;2023-03-12T19:54:31;23.65;;;4.05;;
63965;SDS011;50151;52.030;5.350;2023-03-12T19:56:58;26.85;;;4.55;;
63965;SDS011;50151;52.030;5.350;2023-03-12T19:59:24;16.48;;;3.67;;
63965;SDS011;50151;52.030;5.350;2023-03-12T20:01:51;26.25;;;4.25;;
63965;SDS011;50151;52.030;5.350;2023-03-12T20:04:18;23.00;;;4.30;;
63965;SDS011;50151;52.030;5.350;2023-03-12T20:06:45;31.60;;;4.47;;
63965;SDS011;50151;52.030;5.350;2023-03-12T20:09:12;28.02;;;4.45;;
63965;SDS011;50151;52.030;5.350;2023-03-12T20:11:38;25.92;;;4.28;;
63965;SDS011;50151;52.030;5.350;2023-03-12T20:14:06;20.73;;;4.95;;
63965;SDS011;50151;52.030;5.350;2023-03-12T20:16:33;30.15;;;4.80;;
63965;SDS011;50151;52.030;5.350;2023-03-12T20:19:00;21.65;;;4.82;;
63965;SDS011;50151;52.030;5.350;2023-03-12T20:21:26;26.55;;;5.38;;
63965;SDS011;50151;52.030;5.350;2023-03-12T20:23:55;20.02;;;3.92;;
63965;SDS011;50151;52.030;5.350;2023-03-12T20:26:22;25.92;;;4.65;;
63965;SDS011;50151;52.030;5.350;2023-03-12T20:28:49;27.52;;;4.85;;
63965;SDS011;50151;52.030;5.350;2023-03-12T20:31:15;22.83;;;3.78;;
63965;SDS011;50151;52.030;5.350;2023-03-12T20:33:43;22.83;;;3.72;;
63965;SDS011;50151;52.030;5.350;2023-03-12T20:36:11;22.75;;;4.15;;
63965;SDS011;50151;52.030;5.350;2023-03-12T20:38:39;29.40;;;4.95;;
63965;SDS011;50151;52.030;5.350;2023-03-12T20:41:12;24.35;;;3.78;;
63965;SDS011;50151;52.030;5.350;2023-03-12T20:43:39;31.37;;;4.43;;
63965;SDS011;50151;52.030;5.350;2023-03-12T20:46:07;22.40;;;4.22;;
63965;SDS011;50151;52.030;5.350;2023-03-12T20:48:34;27.73;;;4.72;;
63965;SDS011;50151;52.030;5.350;2023-03-12T20:51:01;32.67;;;4.05;;
63965;SDS011;50151;52.030;5.350;2023-03-12T20:53:28;22.65;;;4.22;;
63965;SDS011;50151;52.030;5.350;2023-03-12T20:55:55;28.45;;;4.43;;
63965;SDS011;50151;52.030;5.350;2023-03-12T20:58:22;26.00;;;4.18;;
63965;SDS011;50151;52.030;5.350;2023-03-12T21:00:49;30.48;;;4.13;;
63965;SDS011;50151;52.030;5.350;2023-03-12T21:03:16;23.65;;;3.05;;
63965;SDS011;50151;52.030;5.350;2023-03-12T21:05:56;20.85;;;4.57;;
63965;SDS011;50151;52.030;5.350;2023-03-12T21:08:25;24.40;;;3.70;;
63965;SDS011;50151;52.030;5.350;2023-03-12T21:10:52;22.67;;;3.63;;
63965;SDS011;50151;52.030;5.350;2023-03-12T21:13:20;20.83;;;3.47;;
63965;SDS011;50151;52.030;5.350;2023-03-12T21:15:48;30.15;;;3.83;;
63965;SDS011;50151;52.030;5.350;2023-03-12T21:18:15;23.48;;;2.90;;
63965;SDS011;50151;52.030;5.350;2023-03-12T21:20:42;24.50;;;3.67;;
63965;SDS011;50151;52.030;5.350;2023-03-12T21:23:09;21.13;;;3.80;;
63965;SDS011;50151;52.030;5.350;2023-03-12T21:25:37;20.83;;;4.07;;
63965;SDS011;50151;52.030;5.350;2023-03-12T21:28:06;21.60;;;4.00;;
63965;SDS011;50151;52.030;5.350;2023-03-12T21:30:34;31.90;;;4.97;;
63965;SDS011;50151;52.030;5.350;2023-03-12T21:33:01;23.33;;;4.68;;
63965;SDS011;50151;52.030;5.350;2023-03-12T21:35:28;18.27;;;3.40;;
63965;SDS011;50151;52.030;5.350;2023-03-12T21:37:55;24.63;;;3.67;;
63965;SDS011;50151;52.030;5.350;2023-03-12T21:40:22;27.52;;;4.63;;
63965;SDS011;50151;52.030;5.350;2023-03-12T21:42:49;30.85;;;4.28;;
63965;SDS011;50151;52.030;5.350;2023-03-12T21:45:15;29.00;;;4.80;;
63965;SDS011;50151;52.030;5.350;2023-03-12T21:47:42;28.92;;;4.07;;
63965;SDS011;50151;52.030;5.350;2023-03-12T21:50:09;26.88;;;4.10;;
63965;SDS011;50151;52.030;5.350;2023-03-12T21:52:36;24.75;;;4.47;;
63965;SDS011;50151;52.030;5.350;2023-03-12T21:55:09;26.08;;;4.47;;
63965;SDS011;50151;52.030;5.350;2023-03-12T21:57:35;25.33;;;4.68;;
63965;SDS011;50151;52.030;5.350;2023-03-12T22:00:03;22.90;;;4.15;;
63965;SDS011;50151;52.030;5.350;2023-03-12T22:02:31;30.38;;;4.25;;
63965;SDS011;50151;52.030;5.350;2023-03-12T22:04:58;32.03;;;4.68;;
63965;SDS011;50151;52.030;5.350;2023-03-12T22:07:27;26.50;;;4.45;;
63965;SDS011;50151;52.030;5.350;2023-03-12T22:09:55;27.27;;;4.35;;
63965;SDS011;50151;52.030;5.350;2023-03-12T22:12:22;28.73;;;4.78;;
63965;SDS011;50151;52.030;5.350;2023-03-12T22:14:49;25.83;;;3.78;;
63965;SDS011;50151;52.030;5.350;2023-03-12T22:17:15;25.20;;;4.72;;
63965;SDS011;50151;52.030;5.350;2023-03-12T22:19:42;27.33;;;4.43;;
63965;SDS011;50151;52.030;5.350;2023-03-12T22:22:09;23.75;;;4.15;;
63965;SDS011;50151;52.030;5.350;2023-03-12T22:24:36;26.40;;;5.10;;
63965;SDS011;50151;52.030;5.350;2023-03-12T22:27:03;29.15;;;4.30;;
